Time;durP1;ratioP1;P1;durP2;ratioP2;P2;SDS_P1;SDS_P2;PMS_P1;PMS_P2;Temp;Humidity;BMP_temperature;BMP_pressure;BME280_temperature;BME280_humidity;BME280_pressure;Samples;Min_cycle;Max_cycle;Signal;HPM_P1;HPM_P2
2021/03/09 00:02:12;;;;;;;103.97;39.90;;;;;;;;;;5055007;28;20289;-90
2021/03/09 00:04:37;;;;;;;99.03;40.57;;;;;;;;;;5056771;28;20168;-91
2021/03/09 00:07:03;;;;;;;97.83;40.33;;;;;;;;;;5056265;28;20654;-90
2021/03/09 00:09:29;;;;;;;96.27;39.67;;;;;;;;;;5056151;28;20176;-90
2021/03/09 00:11:54;;;;;;;92.50;39.73;;;;;;;;;;5055213;28;20266;-90
2021/03/09 00:14:19;;;;;;;105.37;44.37;;;;;;;;;;5056468;28;20268;-90
2021/03/09 00:16:45;;;;;;;115.87;45.27;;;;;;;;;;5055013;28;20172;-91
2021/03/09 00:19:10;;;;;;;105.30;44.97;;;;;;;;;;5055118;28;20258;-90
2021/03/09 00:21:36;;;;;;;103.37;45.77;;;;;;;;;;5054934;28;20241;-91
2021/03/09 00:24:01;;;;;;;89.90;39.73;;;;;;;;;;5056747;28;20192;-91
2021/03/09 00:26:26;;;;;;;81.37;38.07;;;;;;;;;;5056152;28;20176;-91
2021/03/09 00:28:52;;;;;;;70.13;35.43;;;;;;;;;;5056638;28;20196;-91
2021/03/09 00:31:17;;;;;;;422.83;156.63;;;;;;;;;;5055592;28;20695;-90
2021/03/09 00:33:43;;;;;;;258.57;96.50;;;;;;;;;;5055661;28;20266;-91
2021/03/09 00:36:08;;;;;;;114.03;48.90;;;;;;;;;;5054658;28;20253;-90
2021/03/09 00:38:34;;;;;;;72.97;36.80;;;;;;;;;;5054776;28;20182;-90
2021/03/09 00:40:59;;;;;;;75.67;33.33;;;;;;;;;;5054539;28;20196;-90
2021/03/09 00:43:24;;;;;;;64.40;32.23;;;;;;;;;;5054465;28;20203;-90
2021/03/09 00:45:50;;;;;;;64.20;32.00;;;;;;;;;;5054541;28;20190;-90
2021/03/09 00:48:15;;;;;;;81.90;35.40;;;;;;;;;;5055496;28;20164;-90
2021/03/09 00:50:40;;;;;;;78.00;36.27;;;;;;;;;;5054243;28;20184;-91
2021/03/09 00:53:05;;;;;;;76.43;34.50;;;;;;;;;;5054237;28;20201;-90
2021/03/09 00:55:31;;;;;;;83.07;34.80;;;;;;;;;;5055061;28;20175;-90
2021/03/09 00:57:57;;;;;;;86.40;35.57;;;;;;;;;;5055747;28;20170;-90
2021/03/09 01:00:22;;;;;;;86.57;37.00;;;;;;;;;;5054450;28;20176;-91
2021/03/09 01:02:48;;;;;;;89.63;37.33;;;;;;;;;;5053057;28;20235;-91
2021/03/09 01:05:13;;;;;;;83.50;35.63;;;;;;;;;;5054292;28;20183;-91
2021/03/09 01:07:38;;;;;;;89.50;34.93;;;;;;;;;;5054526;28;20524;-91
2021/03/09 01:10:04;;;;;;;80.53;34.63;;;;;;;;;;5054211;28;20599;-91
2021/03/09 01:12:29;;;;;;;83.93;35.73;;;;;;;;;;5054464;28;20175;-90
2021/03/09 01:14:55;;;;;;;84.93;35.90;;;;;;;;;;5055137;28;20570;-90
2021/03/09 01:17:20;;;;;;;78.13;33.90;;;;;;;;;;5053778;28;20652;-91
2021/03/09 01:19:45;;;;;;;81.33;35.27;;;;;;;;;;5055393;28;20164;-90
2021/03/09 01:22:11;;;;;;;72.97;31.90;;;;;;;;;;5054812;28;20204;-91
2021/03/09 01:24:36;;;;;;;64.43;30.77;;;;;;;;;;5055224;28;20259;-91
2021/03/09 01:27:01;;;;;;;62.93;31.97;;;;;;;;;;5054574;28;20538;-91
2021/03/09 01:29:27;;;;;;;68.90;30.97;;;;;;;;;;5053829;28;20222;-91
2021/03/09 01:31:52;;;;;;;59.37;29.77;;;;;;;;;;5053536;28;20186;-90
2021/03/09 01:34:18;;;;;;;63.53;29.43;;;;;;;;;;5054796;28;20160;-91
2021/03/09 01:36:43;;;;;;;97.63;46.47;;;;;;;;;;5055145;28;20175;-91
2021/03/09 01:39:09;;;;;;;131.97;54.77;;;;;;;;;;5053384;28;20225;-90
2021/03/09 01:41:34;;;;;;;67.47;30.20;;;;;;;;;;5053426;28;20498;-91
2021/03/09 01:43:59;;;;;;;71.70;32.07;;;;;;;;;;5053017;28;20223;-91
2021/03/09 01:46:25;;;;;;;62.27;31.90;;;;;;;;;;5053305;28;20182;-90
2021/03/09 01:48:50;;;;;;;62.27;30.83;;;;;;;;;;5054517;28;20626;-90
2021/03/09 01:51:16;;;;;;;59.30;30.07;;;;;;;;;;5053741;28;20172;-92
2021/03/09 01:53:42;;;;;;;53.63;28.23;;;;;;;;;;5053262;28;20519;-92
2021/03/09 01:56:07;;;;;;;59.63;28.03;;;;;;;;;;5053177;28;20176;-92
2021/03/09 01:58:33;;;;;;;55.50;28.63;;;;;;;;;;5054500;28;20172;-91
2021/03/09 02:00:58;;;;;;;59.80;27.83;;;;;;;;;;5054303;28;20160;-91
2021/03/09 02:03:24;;;;;;;60.17;29.60;;;;;;;;;;5052824;28;20567;-91
2021/03/09 02:05:49;;;;;;;54.17;28.50;;;;;;;;;;5053032;28;20187;-91
2021/03/09 02:08:15;;;;;;;59.23;28.73;;;;;;;;;;5052926;28;20195;-91
2021/03/09 02:10:40;;;;;;;65.97;28.60;;;;;;;;;;5054458;28;20253;-90
2021/03/09 02:13:17;;;;;;;55.30;27.70;;;;;;;;;;5052861;28;20176;-91
2021/03/09 02:15:52;;;;;;;59.23;28.30;;;;;;;;;;5053694;28;20260;-90
2021/03/09 02:18:28;;;;;;;55.57;26.53;;;;;;;;;;5053389;28;20179;-91
2021/03/09 02:21:11;;;;;;;53.17;27.77;;;;;;;;;;5053976;28;20633;-91
2021/03/09 02:24:00;;;;;;;59.20;29.97;;;;;;;;;;5052737;28;20215;-91
2021/03/09 02:26:44;;;;;;;60.47;30.87;;;;;;;;;;5044181;28;20187;-91
2021/03/09 02:29:12;;;;;;;55.40;28.43;;;;;;;;;;5054490;28;20668;-91
2021/03/09 02:31:39;;;;;;;52.03;26.37;;;;;;;;;;5053909;28;20168;-91
2021/03/09 02:34:08;;;;;;;57.83;28.33;;;;;;;;;;5052345;28;20220;-91
2021/03/09 02:36:35;;;;;;;53.67;27.73;;;;;;;;;;5053848;28;20171;-90
2021/03/09 02:39:04;;;;;;;52.30;27.27;;;;;;;;;;5053496;28;20179;-90
2021/03/09 02:41:30;;;;;;;50.70;26.47;;;;;;;;;;5053763;28;20203;-90
2021/03/09 02:43:56;;;;;;;43.20;23.50;;;;;;;;;;5052715;28;20210;-90
2021/03/09 02:46:23;;;;;;;41.83;22.73;;;;;;;;;;5054148;28;20264;-90
2021/03/09 02:48:49;;;;;;;42.67;22.60;;;;;;;;;;5052459;28;20627;-89
2021/03/09 02:51:15;;;;;;;42.27;21.37;;;;;;;;;;5052395;28;20183;-88
2021/03/09 02:53:51;;;;;;;36.47;19.70;;;;;;;;;;5053386;28;20179;-89
2021/03/09 02:56:18;;;;;;;38.17;18.97;;;;;;;;;;5054277;28;20176;-89
2021/03/09 02:58:44;;;;;;;35.67;18.53;;;;;;;;;;5053881;28;20169;-89
2021/03/09 03:01:10;;;;;;;29.70;17.03;;;;;;;;;;5053578;28;20183;-88
2021/03/09 03:03:38;;;;;;;30.73;17.00;;;;;;;;;;5053922;28;20206;-89
2021/03/09 03:06:04;;;;;;;33.20;16.03;;;;;;;;;;5053818;28;20171;-89
2021/03/09 03:08:30;;;;;;;35.13;17.03;;;;;;;;;;5054681;28;20211;-89
2021/03/09 03:10:56;;;;;;;31.77;16.83;;;;;;;;;;5052780;28;20176;-89
2021/03/09 03:13:22;;;;;;;31.50;17.20;;;;;;;;;;5053457;28;20570;-90
2021/03/09 03:15:48;;;;;;;31.33;17.53;;;;;;;;;;5053759;28;20196;-89
2021/03/09 03:18:14;;;;;;;34.03;18.03;;;;;;;;;;5053216;28;20179;-89
2021/03/09 03:20:41;;;;;;;37.07;17.97;;;;;;;;;;5053947;28;20516;-89
2021/03/09 03:23:07;;;;;;;38.43;20.37;;;;;;;;;;5052134;28;20211;-89
2021/03/09 03:25:33;;;;;;;34.03;18.40;;;;;;;;;;5051896;28;20173;-89
2021/03/09 03:27:59;;;;;;;39.10;20.87;;;;;;;;;;5057459;28;20176;-89
2021/03/09 03:30:24;;;;;;;46.30;22.67;;;;;;;;;;5057412;28;20217;-90
2021/03/09 03:32:50;;;;;;;71.80;30.63;;;;;;;;;;5056978;28;20636;-89
2021/03/09 03:35:16;;;;;;;87.80;37.43;;;;;;;;;;5055874;28;20655;-89
2021/03/09 03:37:42;;;;;;;90.83;41.70;;;;;;;;;;5057097;28;20172;-89
2021/03/09 03:40:25;;;;;;;85.77;38.60;;;;;;;;;;5055678;28;20196;-89
2021/03/09 03:42:51;;;;;;;81.20;37.30;;;;;;;;;;5057117;28;20199;-89
2021/03/09 03:45:18;;;;;;;76.83;35.43;;;;;;;;;;5056560;28;20230;-89
2021/03/09 03:47:44;;;;;;;80.90;35.87;;;;;;;;;;5057129;28;20180;-90
2021/03/09 03:50:10;;;;;;;86.73;37.57;;;;;;;;;;5056753;28;20178;-92
2021/03/09 03:52:38;;;;;;;92.53;40.70;;;;;;;;;;5055560;28;20176;-92
2021/03/09 03:55:04;;;;;;;88.93;40.10;;;;;;;;;;5055605;28;20180;-92
2021/03/09 03:57:48;;;;;;;87.63;37.37;;;;;;;;;;5057127;28;20232;-92
2021/03/09 04:00:17;;;;;;;75.77;35.90;;;;;;;;;;5055940;28;20677;-91
2021/03/09 04:02:44;;;;;;;69.40;33.30;;;;;;;;;;5054989;28;20567;-91
2021/03/09 04:05:10;;;;;;;77.70;32.43;;;;;;;;;;5055194;28;20232;-92
2021/03/09 04:07:36;;;;;;;75.90;34.07;;;;;;;;;;5056440;28;20216;-91
2021/03/09 04:10:03;;;;;;;74.30;35.13;;;;;;;;;;5056565;28;20211;-92
2021/03/09 04:12:29;;;;;;;79.17;35.83;;;;;;;;;;5055576;28;20175;-92
2021/03/09 04:14:59;;;;;;;73.67;34.33;;;;;;;;;;5055144;28;20503;-92
2021/03/09 04:17:25;;;;;;;89.50;36.80;;;;;;;;;;5055085;28;20618;-91
2021/03/09 04:19:51;;;;;;;80.57;34.87;;;;;;;;;;5054946;28;20178;-91
2021/03/09 04:22:17;;;;;;;75.70;36.43;;;;;;;;;;5055398;28;20654;-92
2021/03/09 04:24:43;;;;;;;74.60;34.60;;;;;;;;;;5054854;28;20525;-91
2021/03/09 04:27:08;;;;;;;76.30;34.33;;;;;;;;;;5056390;28;20176;-91
2021/03/09 04:29:33;;;;;;;72.70;35.33;;;;;;;;;;5054868;28;20179;-91
2021/03/09 04:31:59;;;;;;;78.70;34.07;;;;;;;;;;5054706;28;20184;-91
2021/03/09 04:34:24;;;;;;;83.37;36.43;;;;;;;;;;5054797;28;20227;-92
2021/03/09 04:36:50;;;;;;;72.60;35.27;;;;;;;;;;5054893;28;20222;-91
2021/03/09 04:39:15;;;;;;;66.30;34.17;;;;;;;;;;5055248;28;20625;-93
2021/03/09 04:41:41;;;;;;;83.73;36.50;;;;;;;;;;5055194;28;20711;-93
2021/03/09 04:44:06;;;;;;;77.87;37.20;;;;;;;;;;5054704;28;20203;-92
2021/03/09 04:46:32;;;;;;;73.43;36.60;;;;;;;;;;5054633;28;20176;-92
2021/03/09 04:48:57;;;;;;;77.43;38.17;;;;;;;;;;5054875;28;20183;-92
2021/03/09 04:51:23;;;;;;;75.37;37.33;;;;;;;;;;5054722;28;20530;-93
2021/03/09 04:53:49;;;;;;;77.57;37.20;;;;;;;;;;5054687;28;20222;-93
2021/03/09 04:56:14;;;;;;;76.13;38.43;;;;;;;;;;5055228;28;20628;-93
2021/03/09 04:58:40;;;;;;;84.30;41.23;;;;;;;;;;5054789;28;20204;-94
2021/03/09 05:01:05;;;;;;;94.47;42.57;;;;;;;;;;5054500;28;20254;-93
2021/03/09 05:03:31;;;;;;;82.43;42.70;;;;;;;;;;5054856;28;20220;-92
2021/03/09 05:05:57;;;;;;;102.43;50.20;;;;;;;;;;5054348;28;20189;-91
2021/03/09 05:08:22;;;;;;;107.67;49.47;;;;;;;;;;5055440;28;20168;-91
2021/03/09 05:10:47;;;;;;;101.67;47.10;;;;;;;;;;5054815;28;20483;-93
2021/03/09 05:13:13;;;;;;;111.80;48.30;;;;;;;;;;5054070;28;20620;-92
2021/03/09 05:15:39;;;;;;;102.87;49.13;;;;;;;;;;5055270;28;20696;-92
2021/03/09 05:18:04;;;;;;;105.77;49.83;;;;;;;;;;5053951;28;20183;-92
2021/03/09 05:20:30;;;;;;;115.90;54.13;;;;;;;;;;5053899;28;20180;-93
2021/03/09 05:22:55;;;;;;;111.60;51.77;;;;;;;;;;5054658;28;20184;-93
2021/03/09 05:25:20;;;;;;;104.30;48.77;;;;;;;;;;5053906;28;20176;-92
2021/03/09 05:27:49;;;;;;;119.07;48.80;;;;;;;;;;5053973;28;20242;-93
2021/03/09 05:30:16;;;;;;;133.13;57.23;;;;;;;;;;5055072;28;20172;-92
2021/03/09 05:32:42;;;;;;;194.33;76.77;;;;;;;;;;5053662;28;20291;-92
2021/03/09 05:35:08;;;;;;;162.10;72.33;;;;;;;;;;5053610;28;20175;-93
2021/03/09 05:37:33;;;;;;;167.37;72.60;;;;;;;;;;5053728;28;20186;-92
2021/03/09 05:39:59;;;;;;;162.23;67.67;;;;;;;;;;5053886;28;20238;-92
2021/03/09 05:42:24;;;;;;;170.70;68.03;;;;;;;;;;5053785;28;20633;-92
2021/03/09 05:44:50;;;;;;;165.10;69.67;;;;;;;;;;5054042;28;20584;-91
2021/03/09 05:47:15;;;;;;;192.03;78.97;;;;;;;;;;5053336;28;20654;-91
2021/03/09 05:49:41;;;;;;;196.67;78.37;;;;;;;;;;5053341;28;20212;-92
2021/03/09 05:52:06;;;;;;;190.90;81.33;;;;;;;;;;5053246;28;20641;-91
2021/03/09 05:54:32;;;;;;;236.83;100.13;;;;;;;;;;5053680;28;20172;-91
2021/03/09 05:56:57;;;;;;;192.47;86.17;;;;;;;;;;5054465;28;20222;-91
2021/03/09 05:59:23;;;;;;;195.93;87.53;;;;;;;;;;5053358;28;20179;-91
2021/03/09 06:01:48;;;;;;;316.50;123.47;;;;;;;;;;5052836;28;20235;-90
2021/03/09 06:04:14;;;;;;;311.47;126.10;;;;;;;;;;5054345;28;20271;-90
2021/03/09 06:06:39;;;;;;;343.00;138.93;;;;;;;;;;5052971;28;20187;-90
2021/03/09 06:09:23;;;;;;;392.57;167.30;;;;;;;;;;5053934;28;20192;-90
2021/03/09 06:12:07;;;;;;;356.03;150.27;;;;;;;;;;5054425;28;20275;-90
2021/03/09 06:14:32;;;;;;;338.13;139.13;;;;;;;;;;5054374;28;20175;-90
2021/03/09 06:16:58;;;;;;;257.17;112.83;;;;;;;;;;5054027;28;20622;-89
2021/03/09 06:19:39;;;;;;;373.77;136.47;;;;;;;;;;5053759;28;20175;-89
2021/03/09 06:22:04;;;;;;;312.07;137.63;;;;;;;;;;5054327;28;20179;-89
2021/03/09 06:24:29;;;;;;;319.43;142.13;;;;;;;;;;5053238;28;20614;-89
2021/03/09 06:26:55;;;;;;;274.83;124.50;;;;;;;;;;5053928;28;20522;-89
2021/03/09 06:29:20;;;;;;;328.77;140.30;;;;;;;;;;5053598;28;20211;-90
2021/03/09 06:31:48;;;;;;;247.87;112.53;;;;;;;;;;5052558;28;20176;-90
2021/03/09 06:34:24;;;;;;;274.23;115.83;;;;;;;;;;5053810;28;20233;-92
2021/03/09 06:37:06;;;;;;;277.20;120.47;;;;;;;;;;5052528;28;20175;-92
2021/03/09 06:39:45;;;;;;;209.57;97.13;;;;;;;;;;5052495;28;20178;-92
2021/03/09 06:42:11;;;;;;;179.50;95.27;;;;;;;;;;5053786;28;20164;-93
2021/03/09 06:44:37;;;;;;;165.93;91.10;;;;;;;;;;5052502;28;20298;-93
2021/03/09 06:47:02;;;;;;;257.90;110.20;;;;;;;;;;5053694;28;20164;-91
2021/03/09 06:49:28;;;;;;;216.37;98.20;;;;;;;;;;5053686;28;20170;-90
2021/03/09 06:51:53;;;;;;;105.17;54.73;;;;;;;;;;5052384;28;20724;-91
2021/03/09 06:54:18;;;;;;;79.73;46.33;;;;;;;;;;5052326;28;20616;-93
2021/03/09 06:56:44;;;;;;;57.27;35.83;;;;;;;;;;5052301;28;20203;-93
2021/03/09 06:59:17;;;;;;;47.73;29.17;;;;;;;;;;5053346;28;20206;-91
2021/03/09 07:01:43;;;;;;;51.47;31.43;;;;;;;;;;5053690;28;20230;-91
2021/03/09 07:04:21;;;;;;;53.43;35.63;;;;;;;;;;5051621;28;20184;-91
2021/03/09 07:06:46;;;;;;;57.23;36.77;;;;;;;;;;5055699;28;20183;-90
2021/03/09 07:09:14;;;;;;;62.07;41.50;;;;;;;;;;5056100;28;20625;-91
2021/03/09 07:11:42;;;;;;;63.13;41.67;;;;;;;;;;5057200;28;20176;-91
2021/03/09 07:14:13;;;;;;;40.40;25.87;;;;;;;;;;5057019;28;20204;-92
2021/03/09 07:16:47;;;;;;;35.93;24.93;;;;;;;;;;5056289;28;20180;-92
2021/03/09 07:19:13;;;;;;;34.93;24.27;;;;;;;;;;5056815;28;20192;-91
2021/03/09 07:21:39;;;;;;;32.10;21.83;;;;;;;;;;5056929;28;20242;-90
2021/03/09 07:24:04;;;;;;;29.03;20.83;;;;;;;;;;5053453;28;20191;-90
2021/03/09 07:26:30;;;;;;;23.93;16.67;;;;;;;;;;5056479;28;20180;-91
2021/03/09 07:28:58;;;;;;;25.47;18.13;;;;;;;;;;5054490;28;20187;-89
2021/03/09 07:31:24;;;;;;;24.00;17.60;;;;;;;;;;5056725;28;20225;-90
2021/03/09 07:33:52;;;;;;;21.13;15.27;;;;;;;;;;5054930;28;20219;-91
2021/03/09 07:36:18;;;;;;;20.10;14.70;;;;;;;;;;5056597;28;20167;-91
2021/03/09 07:38:45;;;;;;;19.20;12.73;;;;;;;;;;5055654;28;20172;-91
2021/03/09 07:41:11;;;;;;;15.20;10.40;;;;;;;;;;5057053;28;20200;-91
2021/03/09 07:43:37;;;;;;;18.13;11.07;;;;;;;;;;5055537;28;20187;-91
2021/03/09 07:46:06;;;;;;;18.70;12.20;;;;;;;;;;5054295;28;20226;-93
2021/03/09 07:48:31;;;;;;;19.67;12.80;;;;;;;;;;5054773;28;20653;-93
2021/03/09 07:51:02;;;;;;;15.83;11.43;;;;;;;;;;5055349;28;20175;-92
2021/03/09 07:53:28;;;;;;;13.73;9.03;;;;;;;;;;5054813;28;20213;-92
2021/03/09 07:56:12;;;;;;;11.70;8.93;;;;;;;;;;5054980;28;20259;-92
2021/03/09 07:58:38;;;;;;;14.07;9.63;;;;;;;;;;5056701;28;20621;-92
2021/03/09 08:01:05;;;;;;;15.63;9.20;;;;;;;;;;5055136;28;20271;-92
2021/03/09 08:03:50;;;;;;;14.13;9.20;;;;;;;;;;5056575;28;20222;-91
2021/03/09 08:06:18;;;;;;;18.67;11.90;;;;;;;;;;5055876;28;20188;-91
2021/03/09 08:08:45;;;;;;;17.40;10.87;;;;;;;;;;5056295;28;20359;-91
2021/03/09 08:11:13;;;;;;;13.10;8.93;;;;;;;;;;5056536;28;20199;-92
2021/03/09 08:13:39;;;;;;;11.87;8.13;;;;;;;;;;5054724;28;20218;-91
2021/03/09 08:16:19;;;;;;;12.83;8.23;;;;;;;;;;5055798;28;20255;-90
2021/03/09 08:18:46;;;;;;;13.60;8.67;;;;;;;;;;5054946;28;20622;-90
2021/03/09 08:21:12;;;;;;;14.90;9.50;;;;;;;;;;5055139;28;20254;-89
2021/03/09 08:23:37;;;;;;;12.73;7.77;;;;;;;;;;5054728;28;20174;-89
2021/03/09 08:26:08;;;;;;;12.53;9.13;;;;;;;;;;5054573;28;20587;-90
2021/03/09 08:28:40;;;;;;;13.57;8.33;;;;;;;;;;5054536;28;20176;-89
2021/03/09 08:31:08;;;;;;;11.87;8.37;;;;;;;;;;5052703;28;20176;-90
2021/03/09 08:33:34;;;;;;;12.37;7.97;;;;;;;;;;5054258;28;20262;-89
2021/03/09 08:36:00;;;;;;;10.13;7.27;;;;;;;;;;5053893;28;20215;-89
2021/03/09 08:38:25;;;;;;;9.77;7.10;;;;;;;;;;5054220;28;20262;-89
2021/03/09 08:44:26;;;;;;;7.13;5.30;;;;;;;;;;5046885;28;20213;-90
2021/03/09 08:46:54;;;;;;;6.67;4.90;;;;;;;;;;5054003;28;20241;-90
2021/03/09 08:49:52;;;;;;;7.57;5.70;;;;;;;;;;5052663;28;20743;-87
2021/03/09 08:52:17;;;;;;;8.93;6.30;;;;;;;;;;5053509;28;20194;-88
2021/03/09 08:54:49;;;;;;;8.43;6.10;;;;;;;;;;5054174;28;20587;-88
2021/03/09 08:57:23;;;;;;;7.23;5.10;;;;;;;;;;5054190;28;20200;-88
2021/03/09 08:59:49;;;;;;;7.60;5.43;;;;;;;;;;5053921;28;20183;-88
2021/03/09 09:02:22;;;;;;;9.47;6.40;;;;;;;;;;5035991;28;20243;-87
2021/03/09 09:04:54;;;;;;;13.07;7.63;;;;;;;;;;5054828;28;20187;-89
2021/03/09 09:07:19;;;;;;;10.70;7.03;;;;;;;;;;5055543;28;20258;-89
2021/03/09 09:09:45;;;;;;;20.53;9.00;;;;;;;;;;5055549;28;20258;-89
2021/03/09 09:12:25;;;;;;;13.23;7.50;;;;;;;;;;5055097;28;20199;-89
2021/03/09 09:15:02;;;;;;;25.07;14.80;;;;;;;;;;5052002;28;20191;-88
2021/03/09 09:17:28;;;;;;;11.40;6.63;;;;;;;;;;5051986;28;20541;-89
2021/03/09 09:20:01;;;;;;;10.07;6.70;;;;;;;;;;5052770;28;20180;-88
2021/03/09 09:22:26;;;;;;;15.67;10.23;;;;;;;;;;5055016;28;20180;-89
2021/03/09 09:24:56;;;;;;;37.00;23.00;;;;;;;;;;5054341;28;20175;-89
2021/03/09 09:27:21;;;;;;;6.50;5.40;;;;;;;;;;5054391;28;20176;-88
2021/03/09 09:29:53;;;;;;;7.70;4.80;;;;;;;;;;5051214;28;20175;-88
2021/03/09 09:32:18;;;;;;;16.63;11.10;;;;;;;;;;5054723;28;20207;-87
2021/03/09 09:34:44;;;;;;;20.37;14.77;;;;;;;;;;5052179;28;20203;-88
2021/03/09 09:37:10;;;;;;;16.93;8.83;;;;;;;;;;5053430;28;20599;-87
2021/03/09 09:39:36;;;;;;;24.53;9.40;;;;;;;;;;5052479;28;20653;-87
2021/03/09 09:42:01;;;;;;;20.10;8.20;;;;;;;;;;5054349;28;20179;-87
2021/03/09 09:44:27;;;;;;;6.37;4.73;;;;;;;;;;5053640;28;20172;-88
2021/03/09 09:46:52;;;;;;;14.93;7.73;;;;;;;;;;5054306;28;20172;-87
2021/03/09 09:49:18;;;;;;;6.50;4.90;;;;;;;;;;5054503;28;20168;-87
2021/03/09 09:51:43;;;;;;;5.83;4.63;;;;;;;;;;5053560;28;20176;-89
2021/03/09 09:54:12;;;;;;;9.17;5.50;;;;;;;;;;5034020;28;20211;-88
2021/03/09 09:56:37;;;;;;;14.93;7.50;;;;;;;;;;5034454;28;20255;-87
2021/03/09 09:59:03;;;;;;;14.33;6.60;;;;;;;;;;5034436;28;20196;-89
2021/03/09 10:01:31;;;;;;;12.77;7.60;;;;;;;;;;5033569;28;20320;-88
2021/03/09 10:03:58;;;;;;;13.60;10.80;;;;;;;;;;5034348;28;20199;-88
2021/03/09 10:06:25;;;;;;;9.57;5.93;;;;;;;;;;5034239;28;20180;-88
2021/03/09 10:08:51;;;;;;;4.43;3.60;;;;;;;;;;5039558;28;20664;-88
2021/03/09 10:11:16;;;;;;;6.03;4.53;;;;;;;;;;5054132;28;20172;-88
2021/03/09 10:13:42;;;;;;;7.43;4.27;;;;;;;;;;5053576;28;20200;-87
2021/03/09 10:16:08;;;;;;;9.40;5.50;;;;;;;;;;5053645;28;20176;-87
2021/03/09 10:18:34;;;;;;;11.10;5.50;;;;;;;;;;5053714;28;20214;-87
2021/03/09 10:21:10;;;;;;;7.30;5.00;;;;;;;;;;5053604;28;20208;-87
2021/03/09 10:23:51;;;;;;;4.23;3.80;;;;;;;;;;5052788;28;20644;-87
2021/03/09 10:26:24;;;;;;;5.87;4.13;;;;;;;;;;5053388;28;20186;-87
2021/03/09 10:28:58;;;;;;;4.77;3.70;;;;;;;;;;5053658;28;20171;-87
2021/03/09 10:31:23;;;;;;;4.90;3.40;;;;;;;;;;5053686;28;20175;-87
2021/03/09 10:34:01;;;;;;;7.53;4.10;;;;;;;;;;5053377;28;20204;-87
2021/03/09 10:36:26;;;;;;;6.17;4.63;;;;;;;;;;5053997;28;20210;-86
2021/03/09 10:39:09;;;;;;;8.27;4.60;;;;;;;;;;5053634;28;20643;-87
2021/03/09 10:41:35;;;;;;;11.60;5.67;;;;;;;;;;5051522;28;20252;-86
2021/03/09 10:44:00;;;;;;;46.17;21.93;;;;;;;;;;5054681;28;20184;-86
2021/03/09 10:46:26;;;;;;;7.17;4.90;;;;;;;;;;5064400;28;20679;-88
2021/03/09 10:48:51;;;;;;;11.87;6.73;;;;;;;;;;5063369;28;20183;-87
2021/03/09 10:51:20;;;;;;;5.23;3.80;;;;;;;;;;5050811;28;20176;-87
2021/03/09 10:53:46;;;;;;;6.63;4.43;;;;;;;;;;5067173;28;20199;-86
2021/03/09 10:56:11;;;;;;;12.10;5.90;;;;;;;;;;5073535;28;20202;-87
2021/03/09 10:58:37;;;;;;;5.87;3.97;;;;;;;;;;5073414;28;20614;-87
2021/03/09 11:01:03;;;;;;;6.87;4.37;;;;;;;;;;5068443;28;20198;-87
2021/03/09 11:03:28;;;;;;;4.23;3.77;;;;;;;;;;5055301;28;20220;-86
2021/03/09 11:05:53;;;;;;;4.83;3.83;;;;;;;;;;5053971;28;20174;-86
2021/03/09 11:08:19;;;;;;;5.50;3.70;;;;;;;;;;5060764;28;20546;-86
2021/03/09 11:10:44;;;;;;;4.60;3.73;;;;;;;;;;5066927;28;20514;-86
2021/03/09 11:13:09;;;;;;;5.70;3.90;;;;;;;;;;5054453;28;20208;-86
2021/03/09 11:15:35;;;;;;;9.43;5.73;;;;;;;;;;5067647;28;20266;-85
2021/03/09 11:18:00;;;;;;;5.03;3.93;;;;;;;;;;5057535;28;20190;-86
2021/03/09 11:20:25;;;;;;;5.83;3.67;;;;;;;;;;5063527;28;20690;-85
2021/03/09 11:22:51;;;;;;;6.20;4.20;;;;;;;;;;5057642;28;20176;-85
2021/03/09 11:25:16;;;;;;;4.60;3.63;;;;;;;;;;5069451;28;20560;-85
2021/03/09 11:27:41;;;;;;;5.27;3.93;;;;;;;;;;5057168;28;20532;-86
2021/03/09 11:30:07;;;;;;;5.73;4.37;;;;;;;;;;5052238;28;20618;-86
2021/03/09 11:35:35;;;;;;;5.27;4.10;;;;;;;;;;5048762;28;20166;-87
2021/03/09 11:38:00;;;;;;;5.70;4.10;;;;;;;;;;5064278;28;20176;-86
2021/03/09 11:40:25;;;;;;;6.47;4.77;;;;;;;;;;5064686;28;20194;-86
2021/03/09 11:42:51;;;;;;;5.90;4.67;;;;;;;;;;5056974;28;20270;-86
2021/03/09 11:45:16;;;;;;;11.87;4.97;;;;;;;;;;5069727;28;20179;-87
2021/03/09 11:47:42;;;;;;;9.70;5.00;;;;;;;;;;5060903;28;20186;-87
2021/03/09 11:50:08;;;;;;;3.70;3.20;;;;;;;;;;5066919;28;20172;-87
2021/03/09 11:52:33;;;;;;;5.90;4.63;;;;;;;;;;5054122;28;20226;-88
2021/03/09 11:54:59;;;;;;;3.30;3.00;;;;;;;;;;5049929;28;20628;-87
2021/03/09 11:57:24;;;;;;;3.87;3.40;;;;;;;;;;5072729;28;20622;-88
2021/03/09 11:59:50;;;;;;;3.40;3.00;;;;;;;;;;5061584;28;20595;-87
2021/03/09 12:02:15;;;;;;;4.13;3.10;;;;;;;;;;5049264;28;20227;-87
2021/03/09 12:04:41;;;;;;;4.20;3.30;;;;;;;;;;5067828;28;20602;-87
2021/03/09 12:07:08;;;;;;;4.87;3.63;;;;;;;;;;5059588;28;20183;-89
2021/03/09 12:09:33;;;;;;;4.33;2.80;;;;;;;;;;5060471;28;20626;-87
2021/03/09 12:11:59;;;;;;;3.77;3.13;;;;;;;;;;5075848;28;20246;-87
2021/03/09 12:14:24;;;;;;;3.43;3.13;;;;;;;;;;5075552;28;20230;-88
2021/03/09 12:16:49;;;;;;;2.83;2.57;;;;;;;;;;5076207;28;20182;-88
2021/03/09 12:19:15;;;;;;;4.37;3.00;;;;;;;;;;5076266;28;20175;-88
2021/03/09 12:21:40;;;;;;;6.27;3.77;;;;;;;;;;5075480;28;20167;-88
2021/03/09 12:24:06;;;;;;;18.70;8.63;;;;;;;;;;5060760;28;20522;-88
2021/03/09 12:26:33;;;;;;;8.50;5.43;;;;;;;;;;5055206;28;20607;-88
2021/03/09 12:29:07;;;;;;;33.73;13.13;;;;;;;;;;5056026;28;20247;-89
2021/03/09 12:31:32;;;;;;;32.03;11.10;;;;;;;;;;5055654;28;20152;-87
2021/03/09 12:33:58;;;;;;;10.73;7.10;;;;;;;;;;5055773;28;20206;-87
2021/03/09 12:36:23;;;;;;;6.37;3.87;;;;;;;;;;5056291;28;20699;-87
2021/03/09 12:38:49;;;;;;;9.57;4.40;;;;;;;;;;5056064;28;20635;-86
2021/03/09 12:41:14;;;;;;;16.00;7.80;;;;;;;;;;5054603;28;20261;-87
2021/03/09 12:43:39;;;;;;;20.80;8.10;;;;;;;;;;5055737;28;20677;-87
2021/03/09 12:46:05;;;;;;;6.47;4.13;;;;;;;;;;5055811;28;20255;-87
2021/03/09 12:48:30;;;;;;;8.43;5.50;;;;;;;;;;5055325;28;20172;-88
2021/03/09 12:50:55;;;;;;;80.37;31.40;;;;;;;;;;5055560;28;20230;-89
2021/03/09 12:53:24;;;;;;;77.90;28.70;;;;;;;;;;5055263;28;20199;-88
2021/03/09 12:55:49;;;;;;;32.57;13.47;;;;;;;;;;5055386;28;20186;-89
2021/03/09 12:58:14;;;;;;;5.60;4.30;;;;;;;;;;5054514;28;20254;-89
2021/03/09 13:00:40;;;;;;;8.03;5.20;;;;;;;;;;5055086;28;20179;-89
2021/03/09 13:03:05;;;;;;;11.27;6.17;;;;;;;;;;5053510;28;20227;-88
2021/03/09 13:05:30;;;;;;;7.80;4.83;;;;;;;;;;5055214;28;20164;-88
2021/03/09 13:07:56;;;;;;;7.07;4.40;;;;;;;;;;5053951;28;20521;-86
2021/03/09 13:10:21;;;;;;;11.83;5.83;;;;;;;;;;5055017;28;20273;-87
2021/03/09 13:12:47;;;;;;;4.93;3.37;;;;;;;;;;5054910;28;20207;-87
2021/03/09 13:15:13;;;;;;;6.03;4.70;;;;;;;;;;5054818;28;20164;-88
2021/03/09 13:17:38;;;;;;;15.07;10.20;;;;;;;;;;5054303;28;20183;-88
2021/03/09 13:20:07;;;;;;;14.87;11.70;;;;;;;;;;5054058;28;20180;-87
2021/03/09 13:22:33;;;;;;;37.37;16.37;;;;;;;;;;5054782;28;20175;-87
2021/03/09 13:24:58;;;;;;;7.17;5.13;;;;;;;;;;5054632;28;20172;-87
2021/03/09 13:27:24;;;;;;;15.60;7.47;;;;;;;;;;5056101;28;20167;-86
2021/03/09 13:29:49;;;;;;;4.73;3.90;;;;;;;;;;5071862;28;20189;-86
2021/03/09 13:32:14;;;;;;;9.87;5.47;;;;;;;;;;5058450;28;20601;-86
2021/03/09 13:34:40;;;;;;;6.80;4.77;;;;;;;;;;5055457;28;20179;-86
2021/03/09 13:37:05;;;;;;;39.20;17.70;;;;;;;;;;5068808;28;20186;-84
2021/03/09 13:39:31;;;;;;;29.03;13.40;;;;;;;;;;5057487;28;20657;-84
2021/03/09 13:41:56;;;;;;;35.07;14.07;;;;;;;;;;5068705;28;20229;-86
2021/03/09 13:44:21;;;;;;;13.40;7.20;;;;;;;;;;5062727;28;20265;-86
2021/03/09 13:46:47;;;;;;;32.70;14.03;;;;;;;;;;5061864;28;20280;-86
2021/03/09 13:49:13;;;;;;;16.57;8.40;;;;;;;;;;5069693;28;20172;-87
2021/03/09 13:51:39;;;;;;;16.97;7.93;;;;;;;;;;5057530;28;20179;-87
2021/03/09 13:54:05;;;;;;;13.23;7.03;;;;;;;;;;5067661;28;20199;-86
2021/03/09 13:56:30;;;;;;;15.43;6.63;;;;;;;;;;5063693;28;20176;-86
2021/03/09 13:58:56;;;;;;;11.77;6.73;;;;;;;;;;5060220;28;20163;-86
2021/03/09 14:01:22;;;;;;;9.43;6.10;;;;;;;;;;5070344;28;20175;-87
2021/03/09 14:03:47;;;;;;;21.83;11.83;;;;;;;;;;5057916;28;20163;-86
2021/03/09 14:06:13;;;;;;;25.90;12.57;;;;;;;;;;5066743;28;20182;-88
2021/03/09 14:08:39;;;;;;;25.30;10.63;;;;;;;;;;5064394;28;20652;-86
2021/03/09 14:11:04;;;;;;;14.33;7.53;;;;;;;;;;5058523;28;20175;-88
2021/03/09 14:13:30;;;;;;;11.57;7.27;;;;;;;;;;5070316;28;20301;-89
2021/03/09 14:15:55;;;;;;;10.70;5.57;;;;;;;;;;5059221;28;20614;-88
2021/03/09 14:18:20;;;;;;;20.23;8.47;;;;;;;;;;5065345;28;20258;-88
2021/03/09 14:20:46;;;;;;;11.93;6.97;;;;;;;;;;5064757;28;20266;-87
2021/03/09 14:23:11;;;;;;;16.03;8.93;;;;;;;;;;5058183;28;20339;-88
2021/03/09 14:25:37;;;;;;;9.63;6.07;;;;;;;;;;5070601;28;20182;-89
2021/03/09 14:28:02;;;;;;;11.03;5.70;;;;;;;;;;5041636;28;20187;-87
2021/03/09 14:30:27;;;;;;;7.07;4.63;;;;;;;;;;5064177;28;20168;-87